Wenasoga, Mississippi
Current Conditions -  °F | °C
As of 2:15 PM on Saturday 25 Oct 2014 (Local Time) from KCRX Reporting Station
NA  
Wind Chill: 81°   Ceiling: NA
Heat Index: 81°   Visibility: 10mi
Dew Point: 61°   Wind: 3mph
Humidity: 51%   Direction: 270°W
Pressure: 30.03"   Gusts: NA
Location:  34.9238°N, 88.6234°W
Report Text: KCRX 251915Z AUTO 27003KT 10SM 27/16 A3003 RMK AO2
Loading
Personal Weather Stations






























Interactive Weather Map
Tropical Storm Tracking
New forecast layout! Learn more

10-Day Weather Forecast

Advertisements
Track Severe Weather on mobile